sensor_id;sensor_type;location;lat;lon;timestamp;P1;durP1;ratioP1;P2;durP2;ratioP2
44137;SDS011;29800;55.942;37.314;2024-03-02T00:01:09;61.85;;;29.85;;
44137;SDS011;29800;55.942;37.314;2024-03-02T00:03:39;66.70;;;31.83;;
44137;SDS011;29800;55.942;37.314;2024-03-02T00:06:06;65.35;;;32.88;;
44137;SDS011;29800;55.942;37.314;2024-03-02T00:08:33;65.50;;;31.77;;
44137;SDS011;29800;55.942;37.314;2024-03-02T00:10:59;75.13;;;32.08;;
44137;SDS011;29800;55.942;37.314;2024-03-02T00:13:28;78.82;;;33.60;;
44137;SDS011;29800;55.942;37.314;2024-03-02T00:15:56;68.95;;;32.08;;
44137;SDS011;29800;55.942;37.314;2024-03-02T00:18:27;75.25;;;33.38;;
44137;SDS011;29800;55.942;37.314;2024-03-02T00:20:57;70.63;;;32.60;;
44137;SDS011;29800;55.942;37.314;2024-03-02T00:23:24;71.60;;;32.78;;
44137;SDS011;29800;55.942;37.314;2024-03-02T00:25:53;72.13;;;32.95;;
44137;SDS011;29800;55.942;37.314;2024-03-02T00:28:25;78.47;;;33.90;;
44137;SDS011;29800;55.942;37.314;2024-03-02T00:33:30;77.43;;;33.58;;
44137;SDS011;29800;55.942;37.314;2024-03-02T00:35:59;79.70;;;34.00;;
44137;SDS011;29800;55.942;37.314;2024-03-02T00:38:27;63.45;;;31.85;;
44137;SDS011;29800;55.942;37.314;2024-03-02T00:40:53;74.80;;;33.42;;
44137;SDS011;29800;55.942;37.314;2024-03-02T00:46:07;70.32;;;32.33;;
44137;SDS011;29800;55.942;37.314;2024-03-02T00:48:33;74.88;;;33.13;;
44137;SDS011;29800;55.942;37.314;2024-03-02T00:51:03;76.40;;;32.75;;
44137;SDS011;29800;55.942;37.314;2024-03-02T00:53:29;73.90;;;33.85;;
44137;SDS011;29800;55.942;37.314;2024-03-02T00:55:58;72.75;;;33.03;;
44137;SDS011;29800;55.942;37.314;2024-03-02T00:58:26;66.93;;;33.22;;
44137;SDS011;29800;55.942;37.314;2024-03-02T01:00:52;75.68;;;32.70;;
44137;SDS011;29800;55.942;37.314;2024-03-02T01:03:18;75.55;;;32.40;;
44137;SDS011;29800;55.942;37.314;2024-03-02T01:05:45;66.70;;;32.13;;
44137;SDS011;29800;55.942;37.314;2024-03-02T01:08:11;70.15;;;31.15;;
44137;SDS011;29800;55.942;37.314;2024-03-02T01:10:37;74.57;;;32.60;;
44137;SDS011;29800;55.942;37.314;2024-03-02T01:13:03;65.25;;;30.95;;
44137;SDS011;29800;55.942;37.314;2024-03-02T01:15:30;72.90;;;31.40;;
44137;SDS011;29800;55.942;37.314;2024-03-02T01:17:56;79.15;;;33.10;;
44137;SDS011;29800;55.942;37.314;2024-03-02T01:20:22;70.03;;;32.13;;
44137;SDS011;29800;55.942;37.314;2024-03-02T01:22:50;65.10;;;31.75;;
44137;SDS011;29800;55.942;37.314;2024-03-02T01:25:16;68.97;;;30.70;;
44137;SDS011;29800;55.942;37.314;2024-03-02T01:27:43;69.57;;;31.90;;
44137;SDS011;29800;55.942;37.314;2024-03-02T01:30:09;60.28;;;30.40;;
44137;SDS011;29800;55.942;37.314;2024-03-02T01:32:39;68.93;;;31.40;;
44137;SDS011;29800;55.942;37.314;2024-03-02T01:35:06;61.35;;;30.75;;
44137;SDS011;29800;55.942;37.314;2024-03-02T01:37:32;68.70;;;32.13;;
44137;SDS011;29800;55.942;37.314;2024-03-02T01:39:59;70.90;;;31.92;;
44137;SDS011;29800;55.942;37.314;2024-03-02T01:42:25;65.82;;;31.33;;
44137;SDS011;29800;55.942;37.314;2024-03-02T01:44:51;64.35;;;31.92;;
44137;SDS011;29800;55.942;37.314;2024-03-02T01:47:17;72.15;;;33.35;;
44137;SDS011;29800;55.942;37.314;2024-03-02T01:49:44;72.45;;;32.92;;
44137;SDS011;29800;55.942;37.314;2024-03-02T01:52:10;74.55;;;32.90;;
44137;SDS011;29800;55.942;37.314;2024-03-02T01:54:37;62.30;;;30.45;;
44137;SDS011;29800;55.942;37.314;2024-03-02T01:57:03;74.13;;;31.70;;
44137;SDS011;29800;55.942;37.314;2024-03-02T01:59:29;70.72;;;31.75;;
44137;SDS011;29800;55.942;37.314;2024-03-02T02:01:55;65.88;;;30.95;;
44137;SDS011;29800;55.942;37.314;2024-03-02T02:04:22;77.63;;;33.35;;
44137;SDS011;29800;55.942;37.314;2024-03-02T02:06:53;63.33;;;31.70;;
44137;SDS011;29800;55.942;37.314;2024-03-02T02:09:19;73.38;;;32.08;;
44137;SDS011;29800;55.942;37.314;2024-03-02T02:11:45;72.57;;;32.45;;
44137;SDS011;29800;55.942;37.314;2024-03-02T02:14:13;73.82;;;32.92;;
44137;SDS011;29800;55.942;37.314;2024-03-02T02:16:40;71.07;;;32.53;;
44137;SDS011;29800;55.942;37.314;2024-03-02T02:19:06;68.25;;;31.92;;
44137;SDS011;29800;55.942;37.314;2024-03-02T02:21:32;70.50;;;32.58;;
44137;SDS011;29800;55.942;37.314;2024-03-02T02:23:58;78.32;;;33.70;;
44137;SDS011;29800;55.942;37.314;2024-03-02T02:26:24;72.97;;;34.75;;
44137;SDS011;29800;55.942;37.314;2024-03-02T02:28:50;75.20;;;32.97;;
44137;SDS011;29800;55.942;37.314;2024-03-02T02:31:17;76.25;;;34.60;;
44137;SDS011;29800;55.942;37.314;2024-03-02T02:33:43;72.20;;;32.30;;
44137;SDS011;29800;55.942;37.314;2024-03-02T02:36:09;69.38;;;33.47;;
44137;SDS011;29800;55.942;37.314;2024-03-02T02:38:37;74.78;;;33.70;;
44137;SDS011;29800;55.942;37.314;2024-03-02T02:41:06;68.97;;;32.50;;
44137;SDS011;29800;55.942;37.314;2024-03-02T02:43:32;79.63;;;34.13;;
44137;SDS011;29800;55.942;37.314;2024-03-02T02:45:58;79.32;;;33.83;;
44137;SDS011;29800;55.942;37.314;2024-03-02T02:48:24;72.57;;;32.70;;
44137;SDS011;29800;55.942;37.314;2024-03-02T02:50:50;76.18;;;33.15;;
44137;SDS011;29800;55.942;37.314;2024-03-02T02:53:16;81.50;;;33.50;;
44137;SDS011;29800;55.942;37.314;2024-03-02T02:55:43;73.45;;;31.55;;
44137;SDS011;29800;55.942;37.314;2024-03-02T02:58:09;76.28;;;32.63;;
44137;SDS011;29800;55.942;37.314;2024-03-02T03:00:35;74.90;;;32.53;;
44137;SDS011;29800;55.942;37.314;2024-03-02T03:03:01;75.07;;;33.10;;
44137;SDS011;29800;55.942;37.314;2024-03-02T03:05:28;75.50;;;33.67;;
44137;SDS011;29800;55.942;37.314;2024-03-02T03:07:54;81.10;;;34.35;;
44137;SDS011;29800;55.942;37.314;2024-03-02T03:10:20;79.45;;;33.95;;
44137;SDS011;29800;55.942;37.314;2024-03-02T03:12:49;73.85;;;32.83;;
44137;SDS011;29800;55.942;37.314;2024-03-02T03:15:15;67.22;;;32.13;;
44137;SDS011;29800;55.942;37.314;2024-03-02T03:17:42;71.25;;;32.63;;
44137;SDS011;29800;55.942;37.314;2024-03-02T03:20:08;73.05;;;34.00;;
44137;SDS011;29800;55.942;37.314;2024-03-02T03:22:36;79.45;;;33.85;;
44137;SDS011;29800;55.942;37.314;2024-03-02T03:25:03;71.18;;;33.00;;
44137;SDS011;29800;55.942;37.314;2024-03-02T03:27:29;63.58;;;30.85;;
44137;SDS011;29800;55.942;37.314;2024-03-02T03:29:56;74.80;;;31.67;;
44137;SDS011;29800;55.942;37.314;2024-03-02T03:32:22;71.18;;;31.23;;
44137;SDS011;29800;55.942;37.314;2024-03-02T03:34:48;69.22;;;31.15;;
44137;SDS011;29800;55.942;37.314;2024-03-02T03:37:14;69.88;;;30.90;;
44137;SDS011;29800;55.942;37.314;2024-03-02T03:39:41;68.07;;;29.73;;
44137;SDS011;29800;55.942;37.314;2024-03-02T03:42:07;61.03;;;29.50;;
44137;SDS011;29800;55.942;37.314;2024-03-02T03:44:33;66.57;;;30.60;;
44137;SDS011;29800;55.942;37.314;2024-03-02T03:46:59;62.42;;;29.85;;
44137;SDS011;29800;55.942;37.314;2024-03-02T03:49:27;66.28;;;31.55;;
44137;SDS011;29800;55.942;37.314;2024-03-02T03:51:54;68.35;;;29.85;;
44137;SDS011;29800;55.942;37.314;2024-03-02T03:54:20;66.32;;;31.77;;
44137;SDS011;29800;55.942;37.314;2024-03-02T03:56:46;68.53;;;32.80;;
44137;SDS011;29800;55.942;37.314;2024-03-02T03:59:12;69.03;;;31.38;;
44137;SDS011;29800;55.942;37.314;2024-03-02T04:01:38;71.68;;;31.45;;
44137;SDS011;29800;55.942;37.314;2024-03-02T04:04:05;73.45;;;29.40;;
44137;SDS011;29800;55.942;37.314;2024-03-02T04:06:31;70.00;;;32.22;;
44137;SDS011;29800;55.942;37.314;2024-03-02T04:08:57;72.22;;;33.28;;
44137;SDS011;29800;55.942;37.314;2024-03-02T04:11:23;72.82;;;33.25;;
44137;SDS011;29800;55.942;37.314;2024-03-02T04:13:50;77.03;;;32.50;;
44137;SDS011;29800;55.942;37.314;2024-03-02T04:16:16;73.20;;;32.42;;
44137;SDS011;29800;55.942;37.314;2024-03-02T04:18:42;74.60;;;31.65;;
44137;SDS011;29800;55.942;37.314;2024-03-02T04:21:08;68.32;;;32.95;;
44137;SDS011;29800;55.942;37.314;2024-03-02T04:23:34;73.40;;;32.13;;
44137;SDS011;29800;55.942;37.314;2024-03-02T04:26:00;67.60;;;31.35;;
44137;SDS011;29800;55.942;37.314;2024-03-02T04:28:27;70.40;;;33.85;;
44137;SDS011;29800;55.942;37.314;2024-03-02T04:30:53;72.45;;;32.78;;
44137;SDS011;29800;55.942;37.314;2024-03-02T04:33:19;67.32;;;31.20;;
44137;SDS011;29800;55.942;37.314;2024-03-02T04:35:46;65.50;;;30.70;;
44137;SDS011;29800;55.942;37.314;2024-03-02T04:38:12;70.82;;;30.63;;
44137;SDS011;29800;55.942;37.314;2024-03-02T04:40:38;64.45;;;29.98;;
44137;SDS011;29800;55.942;37.314;2024-03-02T04:43:04;62.40;;;30.27;;
44137;SDS011;29800;55.942;37.314;2024-03-02T04:45:30;68.03;;;30.63;;
44137;SDS011;29800;55.942;37.314;2024-03-02T04:47:56;65.80;;;31.33;;
44137;SDS011;29800;55.942;37.314;2024-03-02T04:50:22;61.78;;;28.92;;
44137;SDS011;29800;55.942;37.314;2024-03-02T04:52:49;59.80;;;29.58;;
44137;SDS011;29800;55.942;37.314;2024-03-02T04:55:15;63.53;;;29.25;;
44137;SDS011;29800;55.942;37.314;2024-03-02T04:57:50;67.35;;;30.85;;
44137;SDS011;29800;55.942;37.314;2024-03-02T05:00:20;60.92;;;29.55;;
44137;SDS011;29800;55.942;37.314;2024-03-02T05:02:46;60.47;;;30.85;;
44137;SDS011;29800;55.942;37.314;2024-03-02T05:05:13;59.50;;;29.83;;
44137;SDS011;29800;55.942;37.314;2024-03-02T05:07:41;64.30;;;30.38;;
44137;SDS011;29800;55.942;37.314;2024-03-02T05:10:10;64.22;;;30.02;;
44137;SDS011;29800;55.942;37.314;2024-03-02T05:12:39;65.18;;;31.65;;
44137;SDS011;29800;55.942;37.314;2024-03-02T05:15:09;62.13;;;31.15;;
44137;SDS011;29800;55.942;37.314;2024-03-02T05:17:36;65.03;;;30.88;;
44137;SDS011;29800;55.942;37.314;2024-03-02T05:20:04;61.78;;;31.08;;
44137;SDS011;29800;55.942;37.314;2024-03-02T05:22:31;63.97;;;31.90;;
44137;SDS011;29800;55.942;37.314;2024-03-02T05:24:59;65.53;;;32.22;;
44137;SDS011;29800;55.942;37.314;2024-03-02T05:27:26;63.67;;;31.20;;
44137;SDS011;29800;55.942;37.314;2024-03-02T05:29:53;62.53;;;32.72;;
44137;SDS011;29800;55.942;37.314;2024-03-02T05:32:19;69.47;;;32.88;;
44137;SDS011;29800;55.942;37.314;2024-03-02T05:34:45;72.70;;;33.80;;
44137;SDS011;29800;55.942;37.314;2024-03-02T05:37:11;63.55;;;31.75;;
44137;SDS011;29800;55.942;37.314;2024-03-02T05:39:38;69.35;;;32.90;;
44137;SDS011;29800;55.942;37.314;2024-03-02T05:42:04;61.97;;;29.15;;
44137;SDS011;29800;55.942;37.314;2024-03-02T05:44:30;66.28;;;28.73;;
44137;SDS011;29800;55.942;37.314;2024-03-02T05:46:56;71.80;;;34.28;;
44137;SDS011;29800;55.942;37.314;2024-03-02T05:49:22;68.13;;;34.45;;
44137;SDS011;29800;55.942;37.314;2024-03-02T05:51:48;68.45;;;34.83;;
44137;SDS011;29800;55.942;37.314;2024-03-02T05:54:15;75.05;;;35.55;;
44137;SDS011;29800;55.942;37.314;2024-03-02T05:56:41;71.38;;;34.20;;
44137;SDS011;29800;55.942;37.314;2024-03-02T05:59:07;64.50;;;34.35;;
44137;SDS011;29800;55.942;37.314;2024-03-02T06:01:44;66.88;;;33.22;;
44137;SDS011;29800;55.942;37.314;2024-03-02T06:04:17;70.18;;;33.80;;
44137;SDS011;29800;55.942;37.314;2024-03-02T06:06:44;65.78;;;34.78;;
44137;SDS011;29800;55.942;37.314;2024-03-02T06:09:10;67.00;;;35.33;;
44137;SDS011;29800;55.942;37.314;2024-03-02T06:11:39;69.68;;;33.60;;
44137;SDS011;29800;55.942;37.314;2024-03-02T06:14:07;68.45;;;33.88;;
44137;SDS011;29800;55.942;37.314;2024-03-02T06:16:34;61.38;;;32.42;;
44137;SDS011;29800;55.942;37.314;2024-03-02T06:19:01;62.25;;;34.03;;
44137;SDS011;29800;55.942;37.314;2024-03-02T06:21:27;74.35;;;34.45;;
44137;SDS011;29800;55.942;37.314;2024-03-02T06:23:54;63.35;;;33.53;;
44137;SDS011;29800;55.942;37.314;2024-03-02T06:26:20;59.40;;;32.78;;
44137;SDS011;29800;55.942;37.314;2024-03-02T06:28:46;60.53;;;32.63;;
44137;SDS011;29800;55.942;37.314;2024-03-02T06:31:12;59.80;;;30.70;;
44137;SDS011;29800;55.942;37.314;2024-03-02T06:33:39;63.50;;;33.92;;
44137;SDS011;29800;55.942;37.314;2024-03-02T06:36:05;59.58;;;32.47;;
44137;SDS011;29800;55.942;37.314;2024-03-02T06:38:35;69.97;;;34.08;;
44137;SDS011;29800;55.942;37.314;2024-03-02T06:41:01;65.75;;;33.60;;
44137;SDS011;29800;55.942;37.314;2024-03-02T06:43:28;64.18;;;33.78;;
44137;SDS011;29800;55.942;37.314;2024-03-02T06:45:54;67.45;;;34.45;;
44137;SDS011;29800;55.942;37.314;2024-03-02T06:48:20;69.78;;;35.63;;
44137;SDS011;29800;55.942;37.314;2024-03-02T06:50:47;68.88;;;34.97;;
44137;SDS011;29800;55.942;37.314;2024-03-02T06:53:16;69.68;;;34.63;;
44137;SDS011;29800;55.942;37.314;2024-03-02T06:55:44;65.63;;;35.50;;
44137;SDS011;29800;55.942;37.314;2024-03-02T06:58:11;74.05;;;36.13;;
44137;SDS011;29800;55.942;37.314;2024-03-02T07:00:38;69.25;;;34.05;;
44137;SDS011;29800;55.942;37.314;2024-03-02T07:03:04;68.35;;;33.63;;
44137;SDS011;29800;55.942;37.314;2024-03-02T07:05:30;66.85;;;35.13;;
44137;SDS011;29800;55.942;37.314;2024-03-02T07:07:56;64.57;;;35.90;;
44137;SDS011;29800;55.942;37.314;2024-03-02T07:10:22;69.03;;;36.50;;
44137;SDS011;29800;55.942;37.314;2024-03-02T07:12:49;68.80;;;35.30;;
44137;SDS011;29800;55.942;37.314;2024-03-02T07:15:15;68.05;;;35.03;;
44137;SDS011;29800;55.942;37.314;2024-03-02T07:17:50;70.65;;;35.17;;
44137;SDS011;29800;55.942;37.314;2024-03-02T07:20:17;70.00;;;36.45;;
44137;SDS011;29800;55.942;37.314;2024-03-02T07:22:43;76.20;;;36.55;;
44137;SDS011;29800;55.942;37.314;2024-03-02T07:25:09;65.40;;;35.90;;
44137;SDS011;29800;55.942;37.314;2024-03-02T07:27:35;78.32;;;37.13;;
44137;SDS011;29800;55.942;37.314;2024-03-02T07:30:05;66.88;;;37.05;;
44137;SDS011;29800;55.942;37.314;2024-03-02T07:32:32;64.35;;;31.88;;
44137;SDS011;29800;55.942;37.314;2024-03-02T07:34:58;68.35;;;34.60;;
44137;SDS011;29800;55.942;37.314;2024-03-02T07:37:24;67.25;;;35.05;;
44137;SDS011;29800;55.942;37.314;2024-03-02T07:39:51;68.88;;;36.08;;
44137;SDS011;29800;55.942;37.314;2024-03-02T07:42:17;68.45;;;34.75;;
44137;SDS011;29800;55.942;37.314;2024-03-02T07:44:44;69.93;;;34.33;;
44137;SDS011;29800;55.942;37.314;2024-03-02T07:47:11;68.13;;;35.50;;
44137;SDS011;29800;55.942;37.314;2024-03-02T07:49:37;66.60;;;34.13;;
44137;SDS011;29800;55.942;37.314;2024-03-02T07:52:04;66.80;;;33.70;;
44137;SDS011;29800;55.942;37.314;2024-03-02T07:54:30;71.78;;;35.40;;
44137;SDS011;29800;55.942;37.314;2024-03-02T07:56:56;67.00;;;35.17;;
44137;SDS011;29800;55.942;37.314;2024-03-02T07:59:22;69.65;;;35.67;;
44137;SDS011;29800;55.942;37.314;2024-03-02T08:01:48;69.45;;;36.28;;
44137;SDS011;29800;55.942;37.314;2024-03-02T08:04:16;70.35;;;37.03;;
44137;SDS011;29800;55.942;37.314;2024-03-02T08:06:42;73.15;;;39.25;;
44137;SDS011;29800;55.942;37.314;2024-03-02T08:09:08;74.97;;;37.45;;
44137;SDS011;29800;55.942;37.314;2024-03-02T08:11:37;70.35;;;37.25;;
44137;SDS011;29800;55.942;37.314;2024-03-02T08:14:04;74.95;;;38.70;;
44137;SDS011;29800;55.942;37.314;2024-03-02T08:16:31;73.90;;;37.05;;
44137;SDS011;29800;55.942;37.314;2024-03-02T08:18:58;67.07;;;35.67;;
44137;SDS011;29800;55.942;37.314;2024-03-02T08:21:25;72.25;;;37.10;;
44137;SDS011;29800;55.942;37.314;2024-03-02T08:23:51;77.05;;;38.55;;
44137;SDS011;29800;55.942;37.314;2024-03-02T08:26:17;74.60;;;38.58;;
44137;SDS011;29800;55.942;37.314;2024-03-02T08:28:44;71.80;;;37.63;;
44137;SDS011;29800;55.942;37.314;2024-03-02T08:31:10;75.60;;;37.53;;
44137;SDS011;29800;55.942;37.314;2024-03-02T08:33:36;73.72;;;39.05;;
44137;SDS011;29800;55.942;37.314;2024-03-02T08:36:02;72.78;;;38.25;;
44137;SDS011;29800;55.942;37.314;2024-03-02T08:38:29;79.65;;;38.92;;
44137;SDS011;29800;55.942;37.314;2024-03-02T08:40:55;75.22;;;37.92;;
44137;SDS011;29800;55.942;37.314;2024-03-02T08:43:22;69.32;;;37.13;;
44137;SDS011;29800;55.942;37.314;2024-03-02T08:45:48;65.88;;;35.70;;
44137;SDS011;29800;55.942;37.314;2024-03-02T08:48:16;69.53;;;34.47;;
44137;SDS011;29800;55.942;37.314;2024-03-02T08:50:42;75.93;;;35.60;;
44137;SDS011;29800;55.942;37.314;2024-03-02T08:53:08;74.82;;;35.70;;
44137;SDS011;29800;55.942;37.314;2024-03-02T08:55:34;66.15;;;34.53;;
44137;SDS011;29800;55.942;37.314;2024-03-02T08:58:00;72.15;;;35.42;;
44137;SDS011;29800;55.942;37.314;2024-03-02T09:00:27;61.88;;;34.10;;
44137;SDS011;29800;55.942;37.314;2024-03-02T09:02:53;69.85;;;34.60;;
44137;SDS011;29800;55.942;37.314;2024-03-02T09:05:19;69.15;;;34.53;;
44137;SDS011;29800;55.942;37.314;2024-03-02T09:07:46;66.00;;;33.30;;
44137;SDS011;29800;55.942;37.314;2024-03-02T09:10:12;69.00;;;35.55;;
44137;SDS011;29800;55.942;37.314;2024-03-02T09:12:38;64.22;;;35.03;;
44137;SDS011;29800;55.942;37.314;2024-03-02T09:15:05;69.75;;;33.55;;
44137;SDS011;29800;55.942;37.314;2024-03-02T09:17:31;59.17;;;32.83;;
44137;SDS011;29800;55.942;37.314;2024-03-02T09:19:58;65.28;;;33.88;;
44137;SDS011;29800;55.942;37.314;2024-03-02T09:22:24;67.05;;;32.90;;
44137;SDS011;29800;55.942;37.314;2024-03-02T09:24:50;63.05;;;31.80;;
44137;SDS011;29800;55.942;37.314;2024-03-02T09:27:17;60.85;;;31.30;;
44137;SDS011;29800;55.942;37.314;2024-03-02T09:29:43;58.83;;;31.42;;
44137;SDS011;29800;55.942;37.314;2024-03-02T09:32:12;62.35;;;31.83;;
44137;SDS011;29800;55.942;37.314;2024-03-02T09:34:39;68.35;;;31.13;;
44137;SDS011;29800;55.942;37.314;2024-03-02T09:37:06;64.70;;;32.22;;
44137;SDS011;29800;55.942;37.314;2024-03-02T09:39:33;68.50;;;32.80;;
44137;SDS011;29800;55.942;37.314;2024-03-02T09:42:00;66.55;;;32.50;;
44137;SDS011;29800;55.942;37.314;2024-03-02T09:44:26;66.95;;;32.58;;
44137;SDS011;29800;55.942;37.314;2024-03-02T09:46:52;63.70;;;31.95;;
44137;SDS011;29800;55.942;37.314;2024-03-02T09:49:19;60.90;;;31.75;;
44137;SDS011;29800;55.942;37.314;2024-03-02T09:51:57;68.43;;;31.92;;
44137;SDS011;29800;55.942;37.314;2024-03-02T09:54:23;63.13;;;30.95;;
44137;SDS011;29800;55.942;37.314;2024-03-02T09:56:50;70.40;;;33.33;;
44137;SDS011;29800;55.942;37.314;2024-03-02T09:59:16;60.45;;;31.20;;
44137;SDS011;29800;55.942;37.314;2024-03-02T10:04:27;60.28;;;27.00;;
44137;SDS011;29800;55.942;37.314;2024-03-02T10:09:42;63.30;;;28.10;;
44137;SDS011;29800;55.942;37.314;2024-03-02T10:12:10;61.53;;;29.20;;
44137;SDS011;29800;55.942;37.314;2024-03-02T10:14:38;55.63;;;26.30;;
44137;SDS011;29800;55.942;37.314;2024-03-02T10:17:05;61.13;;;26.58;;
44137;SDS011;29800;55.942;37.314;2024-03-02T10:19:34;56.00;;;26.63;;
44137;SDS011;29800;55.942;37.314;2024-03-02T10:22:03;59.45;;;25.92;;
44137;SDS011;29800;55.942;37.314;2024-03-02T10:24:35;62.00;;;26.77;;
44137;SDS011;29800;55.942;37.314;2024-03-02T10:27:09;55.65;;;24.08;;
44137;SDS011;29800;55.942;37.314;2024-03-02T10:29:45;58.88;;;26.08;;
44137;SDS011;29800;55.942;37.314;2024-03-02T10:32:13;56.00;;;24.35;;
44137;SDS011;29800;55.942;37.314;2024-03-02T10:34:40;61.10;;;26.40;;
44137;SDS011;29800;55.942;37.314;2024-03-02T10:37:07;58.75;;;27.40;;
44137;SDS011;29800;55.942;37.314;2024-03-02T10:39:37;66.13;;;26.50;;
44137;SDS011;29800;55.942;37.314;2024-03-02T10:42:08;58.53;;;24.38;;
44137;SDS011;29800;55.942;37.314;2024-03-02T10:44:35;58.45;;;24.83;;
44137;SDS011;29800;55.942;37.314;2024-03-02T10:47:02;57.95;;;30.35;;
44137;SDS011;29800;55.942;37.314;2024-03-02T10:49:30;64.07;;;30.67;;
44137;SDS011;29800;55.942;37.314;2024-03-02T10:51:57;62.80;;;29.45;;
44137;SDS011;29800;55.942;37.314;2024-03-02T10:54:24;66.10;;;29.60;;
44137;SDS011;29800;55.942;37.314;2024-03-02T10:57:01;59.45;;;26.98;;
44137;SDS011;29800;55.942;37.314;2024-03-02T10:59:34;62.10;;;25.15;;
44137;SDS011;29800;55.942;37.314;2024-03-02T11:02:10;68.35;;;27.25;;
44137;SDS011;29800;55.942;37.314;2024-03-02T11:04:38;62.63;;;30.85;;
44137;SDS011;29800;55.942;37.314;2024-03-02T11:07:07;67.68;;;33.78;;
44137;SDS011;29800;55.942;37.314;2024-03-02T11:09:44;61.33;;;31.33;;
44137;SDS011;29800;55.942;37.314;2024-03-02T11:12:31;69.25;;;31.90;;
44137;SDS011;29800;55.942;37.314;2024-03-02T11:15:04;65.50;;;31.67;;
44137;SDS011;29800;55.942;37.314;2024-03-02T11:17:43;69.35;;;32.42;;
44137;SDS011;29800;55.942;37.314;2024-03-02T11:20:09;70.88;;;33.75;;
44137;SDS011;29800;55.942;37.314;2024-03-02T11:22:36;62.75;;;31.08;;
44137;SDS011;29800;55.942;37.314;2024-03-02T11:25:02;73.65;;;33.53;;
44137;SDS011;29800;55.942;37.314;2024-03-02T11:32:59;62.15;;;31.73;;
44137;SDS011;29800;55.942;37.314;2024-03-02T11:35:27;63.72;;;31.58;;
44137;SDS011;29800;55.942;37.314;2024-03-02T11:37:54;61.65;;;31.85;;
44137;SDS011;29800;55.942;37.314;2024-03-02T11:40:27;65.25;;;31.92;;
44137;SDS011;29800;55.942;37.314;2024-03-02T11:42:54;68.85;;;31.98;;
44137;SDS011;29800;55.942;37.314;2024-03-02T11:45:26;68.72;;;32.25;;
44137;SDS011;29800;55.942;37.314;2024-03-02T11:47:53;66.82;;;32.38;;
44137;SDS011;29800;55.942;37.314;2024-03-02T11:50:39;68.15;;;32.28;;
44137;SDS011;29800;55.942;37.314;2024-03-02T11:53:07;66.03;;;31.67;;
44137;SDS011;29800;55.942;37.314;2024-03-02T11:55:36;62.60;;;31.83;;
44137;SDS011;29800;55.942;37.314;2024-03-02T11:58:03;65.57;;;32.35;;
44137;SDS011;29800;55.942;37.314;2024-03-02T12:00:29;66.00;;;31.23;;
44137;SDS011;29800;55.942;37.314;2024-03-02T12:03:05;63.80;;;31.08;;
44137;SDS011;29800;55.942;37.314;2024-03-02T12:05:34;67.65;;;32.03;;
44137;SDS011;29800;55.942;37.314;2024-03-02T12:08:02;64.00;;;31.83;;
44137;SDS011;29800;55.942;37.314;2024-03-02T12:10:30;69.28;;;32.97;;
44137;SDS011;29800;55.942;37.314;2024-03-02T12:13:01;60.60;;;27.08;;
44137;SDS011;29800;55.942;37.314;2024-03-02T12:15:33;60.33;;;29.60;;
44137;SDS011;29800;55.942;37.314;2024-03-02T12:18:02;63.58;;;27.27;;
44137;SDS011;29800;55.942;37.314;2024-03-02T12:20:30;64.65;;;27.67;;
44137;SDS011;29800;55.942;37.314;2024-03-02T12:22:58;66.28;;;28.25;;
44137;SDS011;29800;55.942;37.314;2024-03-02T12:25:25;64.80;;;31.77;;
44137;SDS011;29800;55.942;37.314;2024-03-02T12:27:54;63.78;;;32.30;;
44137;SDS011;29800;55.942;37.314;2024-03-02T12:30:22;76.50;;;33.75;;
44137;SDS011;29800;55.942;37.314;2024-03-02T12:32:49;68.40;;;32.42;;
44137;SDS011;29800;55.942;37.314;2024-03-02T12:35:17;69.10;;;30.50;;
44137;SDS011;29800;55.942;37.314;2024-03-02T12:37:44;68.95;;;30.67;;
44137;SDS011;29800;55.942;37.314;2024-03-02T12:40:12;64.50;;;30.20;;
44137;SDS011;29800;55.942;37.314;2024-03-02T12:42:39;65.97;;;28.95;;
44137;SDS011;29800;55.942;37.314;2024-03-02T12:45:07;66.00;;;28.23;;
44137;SDS011;29800;55.942;37.314;2024-03-02T12:47:54;67.40;;;30.23;;
44137;SDS011;29800;55.942;37.314;2024-03-02T12:50:20;65.40;;;30.98;;
44137;SDS011;29800;55.942;37.314;2024-03-02T12:52:53;65.25;;;30.73;;
44137;SDS011;29800;55.942;37.314;2024-03-02T12:55:23;63.35;;;31.00;;
44137;SDS011;29800;55.942;37.314;2024-03-02T12:57:50;63.58;;;30.15;;
44137;SDS011;29800;55.942;37.314;2024-03-02T13:00:18;55.28;;;25.80;;
44137;SDS011;29800;55.942;37.314;2024-03-02T13:02:45;58.00;;;24.70;;
44137;SDS011;29800;55.942;37.314;2024-03-02T13:05:12;64.25;;;25.92;;
44137;SDS011;29800;55.942;37.314;2024-03-02T13:07:38;55.33;;;27.13;;
44137;SDS011;29800;55.942;37.314;2024-03-02T13:10:06;50.28;;;26.75;;
44137;SDS011;29800;55.942;37.314;2024-03-02T13:12:36;59.13;;;28.13;;
44137;SDS011;29800;55.942;37.314;2024-03-02T13:15:03;57.70;;;26.45;;
44137;SDS011;29800;55.942;37.314;2024-03-02T13:17:34;66.22;;;32.63;;
44137;SDS011;29800;55.942;37.314;2024-03-02T13:20:01;54.00;;;24.48;;
44137;SDS011;29800;55.942;37.314;2024-03-02T13:22:31;60.83;;;29.58;;
44137;SDS011;29800;55.942;37.314;2024-03-02T13:24:57;55.10;;;26.55;;
44137;SDS011;29800;55.942;37.314;2024-03-02T13:27:25;60.75;;;29.58;;
44137;SDS011;29800;55.942;37.314;2024-03-02T13:29:51;54.00;;;28.05;;
44137;SDS011;29800;55.942;37.314;2024-03-02T13:32:17;52.45;;;27.13;;
44137;SDS011;29800;55.942;37.314;2024-03-02T13:34:49;57.15;;;28.27;;
44137;SDS011;29800;55.942;37.314;2024-03-02T13:37:16;54.97;;;27.48;;
44137;SDS011;29800;55.942;37.314;2024-03-02T13:39:42;56.45;;;27.35;;
44137;SDS011;29800;55.942;37.314;2024-03-02T13:42:09;56.17;;;28.70;;
44137;SDS011;29800;55.942;37.314;2024-03-02T13:44:39;52.47;;;27.38;;
44137;SDS011;29800;55.942;37.314;2024-03-02T13:47:05;53.72;;;27.63;;
44137;SDS011;29800;55.942;37.314;2024-03-02T13:49:32;53.38;;;30.05;;
44137;SDS011;29800;55.942;37.314;2024-03-02T13:52:02;58.10;;;29.17;;
44137;SDS011;29800;55.942;37.314;2024-03-02T13:54:39;52.85;;;27.65;;
44137;SDS011;29800;55.942;37.314;2024-03-02T13:57:06;62.22;;;30.13;;
44137;SDS011;29800;55.942;37.314;2024-03-02T13:59:33;60.63;;;29.27;;
44137;SDS011;29800;55.942;37.314;2024-03-02T14:02:03;54.30;;;26.35;;
44137;SDS011;29800;55.942;37.314;2024-03-02T14:04:31;47.28;;;24.02;;
44137;SDS011;29800;55.942;37.314;2024-03-02T14:07:01;47.30;;;26.05;;
44137;SDS011;29800;55.942;37.314;2024-03-02T14:09:28;59.33;;;28.25;;
44137;SDS011;29800;55.942;37.314;2024-03-02T14:11:54;54.28;;;26.33;;
44137;SDS011;29800;55.942;37.314;2024-03-02T14:14:21;54.25;;;26.90;;
44137;SDS011;29800;55.942;37.314;2024-03-02T14:16:50;56.15;;;27.95;;
44137;SDS011;29800;55.942;37.314;2024-03-02T14:19:16;50.95;;;25.75;;
44137;SDS011;29800;55.942;37.314;2024-03-02T14:21:43;54.63;;;26.23;;
44137;SDS011;29800;55.942;37.314;2024-03-02T14:24:09;57.22;;;28.45;;
44137;SDS011;29800;55.942;37.314;2024-03-02T14:26:35;56.45;;;27.10;;